Time;durP1;ratioP1;P1;durP2;ratioP2;P2;SDS_P1;SDS_P2;PMS_P1;PMS_P2;Temp;Humidity;BMP_temperature;BMP_pressure;BME280_temperature;BME280_humidity;BME280_pressure;Samples;Min_cycle;Max_cycle;Signal;HPM_P1;HPM_P2
2021/08/10 00:01:05;;;;;;;;;3.50;3.50;;;;;;;;5029011;27;45984;-89
2021/08/10 00:03:31;;;;;;;;;2.00;2.00;;;;;;;;5013738;27;45440;-87
2021/08/10 00:05:56;;;;;;;;;6.25;4.00;;;;;;;;5014873;27;45473;-88
2021/08/10 00:08:21;;;;;;;;;2.67;2.33;;;;;;;;5020744;27;45765;-89
2021/08/10 00:10:47;;;;;;;;;4.75;4.00;;;;;;;;5039740;27;48114;-89
2021/08/10 00:13:13;;;;;;;;;4.00;2.50;;;;;;;;5018807;27;46485;-87
2021/08/10 00:15:39;;;;;;;;;4.00;3.00;;;;;;;;5032320;27;45584;-88
2021/08/10 00:18:04;;;;;;;;;4.50;3.25;;;;;;;;5000520;27;45526;-88
2021/08/10 00:20:30;;;;;;;;;3.50;3.50;;;;;;;;5020942;27;45625;-89
2021/08/10 00:22:55;;;;;;;;;4.67;4.00;;;;;;;;5031796;27;45603;-88
2021/08/10 00:25:20;;;;;;;;;4.00;3.00;;;;;;;;5035560;27;45488;-85
2021/08/10 00:27:45;;;;;;;;;7.75;4.00;;;;;;;;5025036;27;46124;-85
2021/08/10 00:30:11;;;;;;;;;5.33;5.00;;;;;;;;5028335;27;45450;-88
2021/08/10 00:32:36;;;;;;;;;6.00;3.00;;;;;;;;5021851;27;45446;-84
2021/08/10 00:35:02;;;;;;;;;3.00;3.00;;;;;;;;5014393;27;45487;-88
2021/08/10 00:37:27;;;;;;;;;4.75;3.75;;;;;;;;5024572;27;46256;-87
2021/08/10 00:39:52;;;;;;;;;3.33;3.33;;;;;;;;5020170;27;48964;-87
2021/08/10 00:42:17;;;;;;;;;5.25;3.00;;;;;;;;5023969;27;45378;-88
2021/08/10 00:44:43;;;;;;;;;6.00;3.00;;;;;;;;5023627;27;46810;-89
2021/08/10 00:47:08;;;;;;;;;5.00;3.50;;;;;;;;5016012;27;45546;-91
2021/08/10 00:49:33;;;;;;;;;4.50;3.75;;;;;;;;5034332;27;45905;-87
2021/08/10 00:51:59;;;;;;;;;3.00;3.00;;;;;;;;5029378;27;45468;-84
2021/08/10 00:54:24;;;;;;;;;4.00;3.25;;;;;;;;5038305;28;45470;-86
2021/08/10 00:56:51;;;;;;;;;3.50;3.00;;;;;;;;5016621;28;45611;-87
2021/08/10 00:59:16;;;;;;;;;2.00;2.00;;;;;;;;5036439;28;45506;-87
2021/08/10 01:01:42;;;;;;;;;3.33;3.33;;;;;;;;5029255;28;45450;-87
2021/08/10 01:04:08;;;;;;;;;4.33;4.33;;;;;;;;5027586;28;45446;-88
2021/08/10 01:06:52;;;;;;;;;3.50;3.50;;;;;;;;5018970;27;45561;-87
2021/08/10 01:09:21;;;;;;;;;3.75;3.25;;;;;;;;5067399;27;48386;-87
2021/08/10 01:12:13;;;;;;;;;3.25;3.00;;;;;;;;5009922;28;45546;-91
2021/08/10 01:15:02;;;;;;;;;4.00;4.00;;;;;;;;5010866;27;45546;-88
2021/08/10 01:17:30;;;;;;;;;5.00;3.50;;;;;;;;5038882;27;45575;-89
2021/08/10 01:20:14;;;;;;;;;3.00;3.00;;;;;;;;5027208;27;46399;-89
2021/08/10 01:22:42;;;;;;;;;6.75;4.25;;;;;;;;5021344;27;45618;-91
2021/08/10 01:25:10;;;;;;;;;5.75;4.50;;;;;;;;5021991;28;45549;-89
2021/08/10 01:27:52;;;;;;;;;4.75;4.50;;;;;;;;5014902;27;45829;-89
2021/08/10 01:30:21;;;;;;;;;4.00;4.00;;;;;;;;5031179;27;46416;-85
2021/08/10 01:32:48;;;;;;;;;4.00;3.00;;;;;;;;5023763;27;45600;-88
2021/08/10 01:35:16;;;;;;;;;5.00;4.75;;;;;;;;5063840;27;45560;-88
2021/08/10 01:37:43;;;;;;;;;6.50;4.00;;;;;;;;5017628;27;45530;-88
2021/08/10 01:40:10;;;;;;;;;7.00;4.75;;;;;;;;5033832;27;47254;-87
2021/08/10 01:42:37;;;;;;;;;3.00;3.00;;;;;;;;5016716;27;46091;-87
2021/08/10 01:45:03;;;;;;;;;6.00;4.25;;;;;;;;5029843;27;45543;-88
2021/08/10 01:47:30;;;;;;;;;6.00;3.50;;;;;;;;5025041;27;45779;-88
2021/08/10 01:49:57;;;;;;;;;5.00;3.75;;;;;;;;5029584;27;45452;-88
2021/08/10 01:52:23;;;;;;;;;5.25;4.25;;;;;;;;5028851;27;46029;-89
2021/08/10 01:54:48;;;;;;;;;6.25;5.00;;;;;;;;5013086;27;45499;-86
2021/08/10 01:57:17;;;;;;;;;4.00;4.00;;;;;;;;5029013;27;45510;-89
2021/08/10 01:59:43;;;;;;;;;3.25;3.25;;;;;;;;5026488;27;45494;-90
2021/08/10 02:02:08;;;;;;;;;8.25;6.50;;;;;;;;5020997;27;45964;-93
2021/08/10 02:04:34;;;;;;;;;7.50;5.00;;;;;;;;5045413;27;45582;-87
2021/08/10 02:07:01;;;;;;;;;5.75;4.50;;;;;;;;5025373;27;45410;-90
2021/08/10 02:09:27;;;;;;;;;7.50;5.00;;;;;;;;5083781;27;47350;-89
2021/08/10 02:11:53;;;;;;;;;7.75;5.25;;;;;;;;5029334;27;45910;-88
2021/08/10 02:14:23;;;;;;;;;8.25;5.00;;;;;;;;5032892;27;45519;-86
2021/08/10 02:16:49;;;;;;;;;6.00;5.00;;;;;;;;5025278;27;45505;-89
2021/08/10 02:19:15;;;;;;;;;5.25;5.25;;;;;;;;5023745;27;46360;-86
2021/08/10 02:21:44;;;;;;;;;3.67;3.67;;;;;;;;5017904;27;45439;-86
2021/08/10 02:24:42;;;;;;;;;4.75;3.75;;;;;;;;5028194;27;45484;-90
2021/08/10 02:27:14;;;;;;;;;6.50;5.00;;;;;;;;5069357;27;45552;-90
2021/08/10 02:29:44;;;;;;;;;5.25;5.00;;;;;;;;5068761;27;45479;-90
2021/08/10 02:32:10;;;;;;;;;6.00;4.75;;;;;;;;5048987;28;45545;-88
2021/08/10 02:34:36;;;;;;;;;5.00;4.00;;;;;;;;5065668;27;46364;-85
2021/08/10 02:37:04;;;;;;;;;5.25;5.25;;;;;;;;5068803;27;46522;-90
2021/08/10 02:39:30;;;;;;;;;6.25;5.25;;;;;;;;5070340;27;45492;-87
2021/08/10 02:41:56;;;;;;;;;7.25;5.00;;;;;;;;5023300;27;1351561;-85
2021/08/10 02:44:23;;;;;;;;;6.25;4.75;;;;;;;;5066549;28;45581;-90
2021/08/10 02:46:49;;;;;;;;;5.00;5.00;;;;;;;;5065117;28;46670;-89
2021/08/10 02:49:14;;;;;;;;;5.00;4.50;;;;;;;;5057870;27;47227;-89
2021/08/10 02:51:39;;;;;;;;;7.75;5.00;;;;;;;;5073290;28;45520;-90
2021/08/10 02:54:05;;;;;;;;;5.00;5.00;;;;;;;;5079245;27;45396;-84
2021/08/10 02:56:35;;;;;;;;;5.75;5.00;;;;;;;;5075868;27;45568;-90
2021/08/10 02:59:05;;;;;;;;;7.00;5.00;;;;;;;;5070637;27;45478;-88
2021/08/10 03:01:33;;;;;;;;;6.50;6.25;;;;;;;;5049666;28;45495;-90
2021/08/10 03:04:00;;;;;;;;;5.00;5.00;;;;;;;;5015189;27;45552;-86
2021/08/10 03:06:25;;;;;;;;;7.00;4.25;;;;;;;;5029757;27;45374;-88
2021/08/10 03:08:56;;;;;;;;;5.00;3.75;;;;;;;;5027017;27;48079;-90
2021/08/10 03:11:21;;;;;;;;;7.00;4.25;;;;;;;;5069533;27;45951;-90
2021/08/10 03:13:47;;;;;;;;;7.75;5.25;;;;;;;;5020729;27;45465;-89
2021/08/10 03:16:14;;;;;;;;;6.00;5.00;;;;;;;;5029864;28;45591;-90
2021/08/10 03:18:41;;;;;;;;;4.50;4.00;;;;;;;;5033790;27;46235;-86
2021/08/10 03:21:07;;;;;;;;;8.50;5.25;;;;;;;;5033005;27;45887;-90
2021/08/10 03:23:34;;;;;;;;;6.50;5.00;;;;;;;;5032162;27;45435;-88
2021/08/10 03:26:00;;;;;;;;;5.25;4.00;;;;;;;;5033085;28;45486;-88
2021/08/10 03:28:26;;;;;;;;;5.50;4.25;;;;;;;;5029363;27;45471;-90
2021/08/10 03:30:52;;;;;;;;;4.50;4.50;;;;;;;;5061016;27;45685;-87
2021/08/10 03:33:17;;;;;;;;;5.75;4.50;;;;;;;;5035942;27;45526;-89
2021/08/10 03:35:43;;;;;;;;;8.00;5.25;;;;;;;;5051734;27;45491;-90
2021/08/10 03:38:09;;;;;;;;;8.00;6.50;;;;;;;;5017017;28;47578;-89
2021/08/10 03:40:36;;;;;;;;;4.00;4.00;;;;;;;;5014289;27;45795;-90
2021/08/10 03:43:02;;;;;;;;;5.25;5.25;;;;;;;;5031031;27;45699;-90
2021/08/10 03:45:28;;;;;;;;;5.00;3.50;;;;;;;;5036620;27;45272;-90
2021/08/10 03:47:54;;;;;;;;;5.00;5.00;;;;;;;;5033621;27;45962;-86
2021/08/10 03:50:19;;;;;;;;;8.50;4.25;;;;;;;;5022093;28;45493;-91
2021/08/10 03:52:47;;;;;;;;;6.25;4.75;;;;;;;;5032651;27;45410;-90
2021/08/10 03:55:12;;;;;;;;;4.50;4.00;;;;;;;;5032944;27;45529;-88
2021/08/10 03:57:39;;;;;;;;;5.00;4.00;;;;;;;;5020043;27;48285;-89
2021/08/10 04:00:06;;;;;;;;;6.00;3.50;;;;;;;;5033216;27;46075;-90
2021/08/10 04:02:32;;;;;;;;;5.00;4.00;;;;;;;;5035954;27;45443;-90
2021/08/10 04:04:57;;;;;;;;;4.00;4.00;;;;;;;;5031794;27;45502;-86
2021/08/10 04:07:23;;;;;;;;;6.75;4.00;;;;;;;;5027659;27;46349;-88
2021/08/10 04:09:48;;;;;;;;;6.00;4.00;;;;;;;;5033896;27;45291;-87
2021/08/10 04:12:14;;;;;;;;;5.25;3.25;;;;;;;;5032325;27;45383;-88
2021/08/10 04:14:40;;;;;;;;;3.75;3.00;;;;;;;;5035297;27;45598;-81
2021/08/10 04:17:06;;;;;;;;;7.00;5.00;;;;;;;;5038852;27;45503;-88
2021/08/10 04:19:33;;;;;;;;;5.25;4.25;;;;;;;;5025156;27;45407;-89
2021/08/10 04:21:58;;;;;;;;;6.00;4.25;;;;;;;;5032655;27;45434;-89
2021/08/10 04:24:24;;;;;;;;;5.33;5.00;;;;;;;;5014876;27;45451;-90
2021/08/10 04:26:49;;;;;;;;;7.75;5.00;;;;;;;;5031408;27;45574;-86
2021/08/10 04:29:14;;;;;;;;;7.67;5.33;;;;;;;;5033060;28;45527;-90
2021/08/10 04:31:40;;;;;;;;;5.00;5.00;;;;;;;;5035392;27;45323;-87
2021/08/10 04:34:05;;;;;;;;;7.25;5.00;;;;;;;;5010709;27;45769;-89
2021/08/10 04:36:31;;;;;;;;;3.75;3.75;;;;;;;;5032016;27;46314;-89
2021/08/10 04:38:56;;;;;;;;;5.67;5.00;;;;;;;;5032229;27;45402;-87
2021/08/10 04:41:21;;;;;;;;;3.67;3.67;;;;;;;;5018869;27;45679;-89
2021/08/10 04:43:46;;;;;;;;;5.67;3.33;;;;;;;;5117129;27;45439;-89
2021/08/10 04:46:11;;;;;;;;;5.00;3.00;;;;;;;;5038984;27;46235;-89
2021/08/10 04:48:37;;;;;;;;;4.33;4.00;;;;;;;;5035355;27;45387;-84
2021/08/10 04:51:02;;;;;;;;;4.33;4.33;;;;;;;;5019650;27;45418;-88
2021/08/10 04:53:27;;;;;;;;;7.33;4.33;;;;;;;;5035597;27;45288;-89
2021/08/10 04:55:52;;;;;;;;;6.00;4.33;;;;;;;;5029485;27;46471;-89
2021/08/10 04:58:18;;;;;;;;;6.00;4.67;;;;;;;;5029282;27;45464;-87
2021/08/10 05:00:43;;;;;;;;;7.00;6.00;;;;;;;;5019267;27;45550;-90
2021/08/10 05:03:08;;;;;;;;;5.00;5.00;;;;;;;;5020293;27;45707;-89
2021/08/10 05:05:33;;;;;;;;;4.00;4.00;;;;;;;;5034220;27;46582;-84
2021/08/10 05:07:58;;;;;;;;;6.33;5.00;;;;;;;;5027043;28;45203;-86
2021/08/10 05:10:24;;;;;;;;;4.25;4.00;;;;;;;;5034404;27;45576;-89
2021/08/10 05:12:49;;;;;;;;;10.00;5.00;;;;;;;;5042890;27;45319;-90
2021/08/10 05:15:14;;;;;;;;;10.00;5.00;;;;;;;;5037140;27;46498;-89
2021/08/10 05:17:40;;;;;;;;;3.67;3.67;;;;;;;;5062106;27;45557;-89
2021/08/10 05:20:06;;;;;;;;;6.75;5.00;;;;;;;;5067956;27;45360;-88
2021/08/10 05:22:31;;;;;;;;;7.25;4.25;;;;;;;;5027784;27;45510;-88
2021/08/10 05:24:56;;;;;;;;;8.33;6.00;;;;;;;;5052496;28;48174;-89
2021/08/10 05:27:22;;;;;;;;;8.00;5.67;;;;;;;;5034310;27;45515;-89
2021/08/10 05:29:47;;;;;;;;;6.00;4.67;;;;;;;;5035793;27;45363;-90
2021/08/10 05:32:12;;;;;;;;;7.67;6.00;;;;;;;;5019606;28;45408;-89
2021/08/10 05:34:38;;;;;;;;;6.00;4.00;;;;;;;;5064309;27;45387;-89
2021/08/10 05:37:04;;;;;;;;;4.25;3.75;;;;;;;;5045424;28;45461;-89
2021/08/10 05:39:29;;;;;;;;;5.00;5.00;;;;;;;;5013988;27;45437;-89
2021/08/10 05:41:55;;;;;;;;;6.00;4.00;;;;;;;;5047907;27;45604;-87
2021/08/10 05:44:20;;;;;;;;;7.50;5.00;;;;;;;;5034067;27;46167;-89
2021/08/10 05:46:45;;;;;;;;;7.25;4.00;;;;;;;;5048777;28;45434;-89
2021/08/10 05:49:10;;;;;;;;;7.00;4.00;;;;;;;;5035377;27;45667;-88
2021/08/10 05:51:36;;;;;;;;;3.67;3.67;;;;;;;;5035132;27;45402;-86
2021/08/10 05:54:01;;;;;;;;;5.25;4.00;;;;;;;;5046364;27;48403;-89
2021/08/10 05:56:27;;;;;;;;;7.00;4.00;;;;;;;;5062903;27;45402;-87
2021/08/10 05:58:52;;;;;;;;;5.00;4.00;;;;;;;;5023818;27;45530;-87
2021/08/10 06:01:17;;;;;;;;;4.67;4.00;;;;;;;;5033124;27;45417;-88
2021/08/10 06:03:43;;;;;;;;;6.50;5.50;;;;;;;;5036614;27;46280;-89
2021/08/10 06:06:08;;;;;;;;;7.75;5.50;;;;;;;;5038878;28;45519;-88
2021/08/10 06:08:33;;;;;;;;;6.00;4.33;;;;;;;;5027314;27;45349;-88
2021/08/10 06:10:58;;;;;;;;;6.67;5.33;;;;;;;;5037642;27;45303;-88
2021/08/10 06:13:23;;;;;;;;;6.33;5.00;;;;;;;;5020861;27;45918;-88
2021/08/10 06:15:49;;;;;;;;;6.00;6.00;;;;;;;;5022850;28;45592;-85
2021/08/10 06:18:14;;;;;;;;;4.00;4.00;;;;;;;;5030141;27;45204;-88
2021/08/10 06:20:39;;;;;;;;;4.00;4.00;;;;;;;;5039019;27;45625;-89
2021/08/10 06:23:05;;;;;;;;;4.00;4.00;;;;;;;;5037119;28;45423;-87
2021/08/10 06:25:30;;;;;;;;;8.75;6.00;;;;;;;;5032637;27;45449;-90
2021/08/10 06:27:56;;;;;;;;;7.00;5.00;;;;;;;;5033616;27;45481;-89
2021/08/10 06:30:21;;;;;;;;;8.00;5.33;;;;;;;;5035390;27;45595;-88
2021/08/10 06:32:46;;;;;;;;;6.50;5.25;;;;;;;;5029375;27;46546;-86
2021/08/10 06:35:11;;;;;;;;;5.00;4.67;;;;;;;;5033823;28;46718;-86
2021/08/10 06:37:37;;;;;;;;;4.50;4.00;;;;;;;;5028844;27;45690;-88
2021/08/10 06:40:02;;;;;;;;;4.50;4.00;;;;;;;;5027560;27;45690;-87
2021/08/10 06:42:27;;;;;;;;;6.75;4.50;;;;;;;;5029151;27;46635;-87
2021/08/10 06:44:53;;;;;;;;;5.00;5.00;;;;;;;;5031092;28;45437;-89
2021/08/10 06:47:18;;;;;;;;;5.00;3.00;;;;;;;;5038154;27;45388;-87
2021/08/10 06:49:43;;;;;;;;;5.67;3.33;;;;;;;;5030278;28;45465;-88
2021/08/10 06:52:09;;;;;;;;;6.00;5.00;;;;;;;;5034962;27;45587;-82
2021/08/10 06:54:35;;;;;;;;;4.25;3.75;;;;;;;;5042815;27;45430;-84
2021/08/10 06:57:07;;;;;;;;;4.00;4.00;;;;;;;;5041492;27;45640;-85
2021/08/10 06:59:33;;;;;;;;;7.25;4.50;;;;;;;;5032416;27;45457;-85
2021/08/10 07:01:58;;;;;;;;;5.00;4.25;;;;;;;;5066122;27;46234;-87
2021/08/10 07:04:24;;;;;;;;;5.33;5.00;;;;;;;;5034267;27;45554;-86
2021/08/10 07:06:49;;;;;;;;;4.50;3.00;;;;;;;;5033354;27;45308;-85
2021/08/10 07:09:15;;;;;;;;;6.33;4.67;;;;;;;;5035937;27;45400;-84
2021/08/10 07:11:42;;;;;;;;;6.25;5.50;;;;;;;;5046885;28;47291;-83
2021/08/10 07:14:11;;;;;;;;;7.50;4.50;;;;;;;;5009447;27;46456;-89
2021/08/10 07:16:36;;;;;;;;;4.50;4.50;;;;;;;;5029568;27;45473;-88
2021/08/10 07:19:01;;;;;;;;;5.50;4.00;;;;;;;;5028801;27;45386;-90
2021/08/10 07:21:27;;;;;;;;;5.33;4.00;;;;;;;;5036222;27;45457;-90
2021/08/10 07:23:52;;;;;;;;;4.33;4.33;;;;;;;;5066799;27;45518;-90
2021/08/10 07:26:17;;;;;;;;;4.67;4.67;;;;;;;;5034065;28;45307;-85
2021/08/10 07:28:42;;;;;;;;;8.00;5.00;;;;;;;;5030360;27;45364;-86
2021/08/10 07:31:08;;;;;;;;;3.50;3.50;;;;;;;;5033231;27;45383;-85
2021/08/10 07:33:33;;;;;;;;;4.00;4.00;;;;;;;;5026319;27;45524;-90
2021/08/10 07:35:58;;;;;;;;;4.25;4.00;;;;;;;;5024401;27;45420;-85
2021/08/10 07:38:23;;;;;;;;;4.50;4.50;;;;;;;;5014700;27;45426;-88
2021/08/10 07:40:50;;;;;;;;;4.00;4.00;;;;;;;;5025511;27;45565;-83
2021/08/10 07:43:15;;;;;;;;;2.50;2.50;;;;;;;;5022098;27;45812;-84
2021/08/10 07:45:40;;;;;;;;;4.00;4.00;;;;;;;;5028470;27;45491;-85
2021/08/10 07:48:06;;;;;;;;;3.00;3.00;;;;;;;;5038355;27;45506;-85
2021/08/10 07:50:31;;;;;;;;;2.33;2.33;;;;;;;;5095764;27;46015;-87
2021/08/10 07:52:56;;;;;;;;;5.00;4.50;;;;;;;;5010122;28;45635;-93
2021/08/10 07:55:21;;;;;;;;;2.33;2.33;;;;;;;;5028221;27;46141;-90
2021/08/10 07:57:47;;;;;;;;;4.33;3.67;;;;;;;;5066234;27;45647;-84
2021/08/10 08:00:12;;;;;;;;;3.00;2.67;;;;;;;;5019735;27;46371;-85
2021/08/10 08:02:37;;;;;;;;;3.00;3.00;;;;;;;;5026879;27;45480;-92
2021/08/10 08:05:03;;;;;;;;;4.25;4.25;;;;;;;;5031675;28;45404;-91
2021/08/10 08:07:29;;;;;;;;;4.00;4.00;;;;;;;;5027012;27;45503;-89
2021/08/10 08:09:55;;;;;;;;;4.50;4.00;;;;;;;;5030659;27;45732;-90
2021/08/10 08:12:20;;;;;;;;;4.00;4.00;;;;;;;;5013268;27;45942;-84
2021/08/10 08:14:45;;;;;;;;;5.67;4.00;;;;;;;;5066854;27;45612;-86
2021/08/10 08:17:12;;;;;;;;;5.00;5.00;;;;;;;;5025394;28;45302;-87
2021/08/10 08:19:37;;;;;;;;;4.50;1.75;;;;;;;;5030505;27;45505;-90
2021/08/10 08:22:02;;;;;;;;;4.00;4.00;;;;;;;;5045039;28;45755;-92
2021/08/10 08:24:28;;;;;;;;;4.00;4.00;;;;;;;;5036344;27;45709;-84
2021/08/10 08:26:53;;;;;;;;;5.00;3.33;;;;;;;;5026852;27;45487;-88
2021/08/10 08:29:18;;;;;;;;;5.00;4.33;;;;;;;;5025026;28;45332;-92
2021/08/10 08:31:43;;;;;;;;;4.33;3.00;;;;;;;;5030420;27;45435;-89
2021/08/10 08:34:08;;;;;;;;;7.33;3.67;;;;;;;;5032774;27;45649;-84
2021/08/10 08:36:34;;;;;;;;;5.33;4.00;;;;;;;;5035022;27;45495;-89
2021/08/10 08:38:59;;;;;;;;;4.00;4.00;;;;;;;;5040751;27;46581;-91
2021/08/10 08:41:25;;;;;;;;;4.75;2.25;;;;;;;;5028751;27;46990;-87
2021/08/10 08:43:50;;;;;;;;;3.00;3.00;;;;;;;;5027518;27;45503;-85
2021/08/10 08:46:16;;;;;;;;;5.50;3.75;;;;;;;;5027630;27;45525;-87
2021/08/10 08:48:44;;;;;;;;;6.50;3.00;;;;;;;;5064477;27;45574;-87
2021/08/10 08:51:10;;;;;;;;;3.00;3.00;;;;;;;;5067231;27;45816;-87
2021/08/10 08:53:41;;;;;;;;;3.50;3.00;;;;;;;;5037285;27;45386;-88
2021/08/10 08:56:06;;;;;;;;;6.00;4.00;;;;;;;;5042104;27;46486;-85
2021/08/10 08:58:31;;;;;;;;;4.33;3.00;;;;;;;;5024927;27;46602;-83
2021/08/10 09:00:57;;;;;;;;;4.00;4.00;;;;;;;;5040735;28;46061;-85
2021/08/10 09:03:22;;;;;;;;;5.00;3.25;;;;;;;;5025517;27;45670;-84
2021/08/10 09:05:48;;;;;;;;;4.00;4.00;;;;;;;;5010572;27;51500;-85
2021/08/10 09:08:28;;;;;;;;;4.50;3.00;;;;;;;;5031864;28;45348;-84
2021/08/10 09:10:55;;;;;;;;;4.00;2.00;;;;;;;;5055837;27;45594;-84
2021/08/10 09:13:20;;;;;;;;;4.00;4.00;;;;;;;;5029374;27;45408;-85
2021/08/10 09:15:46;;;;;;;;;3.00;3.00;;;;;;;;5027473;27;45355;-85
2021/08/10 09:18:12;;;;;;;;;6.00;4.00;;;;;;;;5028571;27;45492;-85
2021/08/10 09:20:38;;;;;;;;;3.00;3.00;;;;;;;;5046938;27;45362;-85
2021/08/10 09:23:03;;;;;;;;;3.00;3.00;;;;;;;;5039889;27;45639;-85
2021/08/10 09:25:29;;;;;;;;;4.75;3.25;;;;;;;;5034421;27;45625;-85
2021/08/10 09:28:01;;;;;;;;;3.00;3.00;;;;;;;;5065715;27;46683;-84
2021/08/10 09:30:26;;;;;;;;;6.50;3.00;;;;;;;;5049551;27;45359;-84
2021/08/10 09:32:52;;;;;;;;;4.00;3.00;;;;;;;;5032847;27;45231;-85
2021/08/10 09:35:18;;;;;;;;;4.00;2.67;;;;;;;;5032343;27;45558;-85
2021/08/10 09:38:04;;;;;;;;;5.00;4.00;;;;;;;;5063250;27;45819;-92
2021/08/10 09:40:31;;;;;;;;;3.00;3.00;;;;;;;;5060400;27;45525;-84
2021/08/10 09:43:17;;;;;;;;;3.00;3.00;;;;;;;;5014054;27;45640;-84
2021/08/10 09:45:42;;;;;;;;;4.00;4.00;;;;;;;;5026510;27;45609;-83
2021/08/10 09:48:12;;;;;;;;;3.00;3.00;;;;;;;;5016774;27;45747;-84
2021/08/10 09:50:37;;;;;;;;;3.50;3.00;;;;;;;;5024836;27;45631;-87
2021/08/10 09:53:15;;;;;;;;;5.33;3.00;;;;;;;;5031854;27;45539;-83
2021/08/10 09:55:50;;;;;;;;;3.50;2.50;;;;;;;;5025574;27;45520;-83
2021/08/10 09:58:16;;;;;;;;;5.25;4.00;;;;;;;;5014749;27;45480;-85
2021/08/10 10:00:42;;;;;;;;;5.67;3.00;;;;;;;;5049338;28;46086;-82
2021/08/10 10:03:14;;;;;;;;;4.00;3.25;;;;;;;;5025768;27;45557;-85
2021/08/10 10:05:40;;;;;;;;;2.25;2.25;;;;;;;;5033500;27;45551;-83
2021/08/10 10:08:16;;;;;;;;;5.00;4.00;;;;;;;;5029010;27;45567;-83
2021/08/10 10:10:42;;;;;;;;;2.25;2.25;;;;;;;;5034922;27;45940;-84
2021/08/10 10:13:09;;;;;;;;;3.00;3.00;;;;;;;;5016590;27;45565;-83
2021/08/10 10:15:34;;;;;;;;;4.25;3.00;;;;;;;;5051326;27;45538;-84
2021/08/10 10:17:59;;;;;;;;;2.00;2.00;;;;;;;;5033183;27;46208;-83
2021/08/10 10:20:25;;;;;;;;;2.00;2.00;;;;;;;;5033858;27;45365;-85
2021/08/10 10:22:51;;;;;;;;;2.00;2.00;;;;;;;;5033881;27;45472;-88
2021/08/10 10:25:16;;;;;;;;;2.75;2.75;;;;;;;;5059711;27;45621;-83
2021/08/10 10:27:41;;;;;;;;;2.00;2.00;;;;;;;;5017767;27;45365;-83
2021/08/10 10:30:08;;;;;;;;;1.50;1.50;;;;;;;;5020554;27;45379;-82
2021/08/10 10:32:33;;;;;;;;;3.50;3.50;;;;;;;;5014350;27;45784;-85
2021/08/10 10:34:58;;;;;;;;;2.00;2.00;;;;;;;;5027837;27;45492;-83
2021/08/10 10:37:25;;;;;;;;;2.00;2.00;;;;;;;;5025301;27;46598;-83
2021/08/10 10:39:55;;;;;;;;;3.00;3.00;;;;;;;;5028602;27;45706;-83
2021/08/10 10:42:21;;;;;;;;;2.50;2.50;;;;;;;;5025726;27;45865;-83
2021/08/10 10:44:52;;;;;;;;;2.00;2.00;;;;;;;;5019164;28;45466;-81
2021/08/10 10:47:20;;;;;;;;;3.25;3.25;;;;;;;;5040502;27;46698;-83
2021/08/10 10:49:45;;;;;;;;;1.00;1.00;;;;;;;;5047867;27;46151;-83
2021/08/10 10:52:10;;;;;;;;;1.50;1.50;;;;;;;;5048099;27;45858;-82
2021/08/10 10:54:43;;;;;;;;;2.00;2.00;;;;;;;;5027862;27;45462;-83
2021/08/10 10:57:28;;;;;;;;;3.00;2.00;;;;;;;;5036419;28;48007;-82
2021/08/10 10:59:53;;;;;;;;;3.00;3.00;;;;;;;;5019829;27;45717;-82
2021/08/10 11:02:20;;;;;;;;;2.00;2.00;;;;;;;;5018768;28;45518;-84
2021/08/10 11:05:04;;;;;;;;;2.75;2.00;;;;;;;;5017230;27;45519;-83
2021/08/10 11:07:51;;;;;;;;;2.00;2.00;;;;;;;;5028593;27;46426;-83
2021/08/10 11:10:23;;;;;;;;;3.00;3.00;;;;;;;;5025829;27;45818;-83
2021/08/10 11:12:48;;;;;;;;;3.00;2.00;;;;;;;;5048632;28;45476;-83
2021/08/10 11:15:17;;;;;;;;;2.00;2.00;;;;;;;;5044250;27;45662;-82
2021/08/10 11:18:01;;;;;;;;;2.25;2.25;;;;;;;;5042120;27;45946;-83
2021/08/10 11:20:27;;;;;;;;;2.00;2.00;;;;;;;;5049484;27;45782;-83
2021/08/10 11:23:11;;;;;;;;;1.75;1.75;;;;;;;;5061638;27;50499;-83
2021/08/10 11:25:36;;;;;;;;;2.00;2.00;;;;;;;;5030751;27;45580;-83
2021/08/10 11:28:21;;;;;;;;;2.50;1.75;;;;;;;;5038289;27;47977;-82
2021/08/10 11:30:46;;;;;;;;;4.00;2.00;;;;;;;;5051314;27;45647;-82
2021/08/10 11:33:31;;;;;;;;;2.00;2.00;;;;;;;;5014973;27;45416;-83
2021/08/10 11:36:09;;;;;;;;;3.50;3.00;;;;;;;;5025644;27;45479;-83
2021/08/10 11:38:34;;;;;;;;;1.00;1.00;;;;;;;;5020640;27;45687;-82
2021/08/10 11:41:01;;;;;;;;;2.25;2.25;;;;;;;;5038175;28;45493;-83
2021/08/10 11:43:36;;;;;;;;;3.00;2.00;;;;;;;;5027204;27;45616;-82
2021/08/10 11:46:03;;;;;;;;;4.00;2.00;;;;;;;;5006430;27;45556;-82
2021/08/10 11:48:43;;;;;;;;;3.75;2.00;;;;;;;;5019791;27;47564;-82
2021/08/10 11:51:38;;;;;;;;;3.25;3.00;;;;;;;;5003754;27;45566;-82
2021/08/10 11:54:06;;;;;;;;;2.25;2.00;;;;;;;;5028283;27;45735;-82
2021/08/10 11:56:34;;;;;;;;;2.00;1.00;;;;;;;;5006048;27;45578;-82
2021/08/10 11:59:00;;;;;;;;;2.00;2.00;;;;;;;;5007716;28;46612;-82
2021/08/10 12:01:27;;;;;;;;;3.00;3.00;;;;;;;;5009148;27;45675;-82
2021/08/10 12:03:52;;;;;;;;;2.25;2.25;;;;;;;;5016460;27;45351;-82
2021/08/10 12:06:25;;;;;;;;;3.00;3.00;;;;;;;;5006125;27;45496;-83
2021/08/10 12:08:50;;;;;;;;;6.00;3.00;;;;;;;;5004958;27;49838;-82
2021/08/10 12:11:21;;;;;;;;;2.67;2.67;;;;;;;;5005550;28;45944;-82
2021/08/10 12:13:46;;;;;;;;;4.00;2.00;;;;;;;;5036551;28;45435;-83
2021/08/10 12:16:11;;;;;;;;;0.67;0.67;;;;;;;;5014029;27;45560;-85
2021/08/10 12:18:46;;;;;;;;;1.00;0.67;;;;;;;;5012292;27;46219;-83
2021/08/10 12:21:11;;;;;;;;;1.50;0.50;;;;;;;;5007446;27;45465;-83
2021/08/10 12:23:38;;;;;;;;;1.67;1.67;;;;;;;;5008835;27;45567;-88
2021/08/10 12:26:10;;;;;;;;;2.00;1.00;;;;;;;;5008013;28;45515;-85
2021/08/10 12:28:49;;;;;;;;;0.00;0.00;;;;;;;;5004424;27;45850;-84
2021/08/10 12:31:14;;;;;;;;;0.75;0.75;;;;;;;;5011845;27;45670;-84
2021/08/10 12:33:46;;;;;;;;;0.67;0.67;;;;;;;;5023192;27;45517;-82
2021/08/10 12:36:12;;;;;;;;;1.00;1.00;;;;;;;;5009383;27;45637;-84
2021/08/10 12:38:37;;;;;;;;;0.00;0.00;;;;;;;;5005112;27;46099;-83
2021/08/10 12:41:03;;;;;;;;;0.75;0.75;;;;;;;;5028990;27;45590;-84
2021/08/10 12:43:29;;;;;;;;;1.50;0.00;;;;;;;;5018702;27;45486;-83
2021/08/10 12:45:54;;;;;;;;;0.00;0.00;;;;;;;;5028510;27;45484;-82
2021/08/10 12:48:26;;;;;;;;;0.00;0.00;;;;;;;;5026464;27;45800;-82
2021/08/10 12:50:59;;;;;;;;;0.00;0.00;;;;;;;;5014056;27;45783;-81
2021/08/10 12:53:42;;;;;;;;;0.00;0.00;;;;;;;;5024858;27;50401;-81
2021/08/10 12:56:08;;;;;;;;;0.75;0.75;;;;;;;;5029440;27;55366;-81
2021/08/10 12:58:50;;;;;;;;;1.00;0.75;;;;;;;;5026254;27;46242;-82
2021/08/10 13:01:15;;;;;;;;;0.00;0.00;;;;;;;;5029544;27;45902;-80
2021/08/10 13:03:41;;;;;;;;;0.00;0.00;;;;;;;;5029092;27;45496;-80
2021/08/10 13:06:06;;;;;;;;;0.50;0.50;;;;;;;;5019812;27;45397;-81
2021/08/10 13:08:32;;;;;;;;;3.25;0.75;;;;;;;;5022581;28;45380;-83
2021/08/10 13:10:58;;;;;;;;;1.75;0.75;;;;;;;;5009629;27;45548;-81
2021/08/10 13:13:24;;;;;;;;;1.75;0.75;;;;;;;;5012103;27;45439;-80
2021/08/10 13:15:51;;;;;;;;;1.75;1.00;;;;;;;;5038346;27;45512;-83
2021/08/10 13:18:16;;;;;;;;;2.50;1.25;;;;;;;;5040425;27;46184;-81
2021/08/10 13:20:48;;;;;;;;;2.00;1.00;;;;;;;;5034472;27;45444;-81
2021/08/10 13:23:14;;;;;;;;;1.00;1.00;;;;;;;;5030258;27;45445;-81
2021/08/10 13:25:51;;;;;;;;;1.25;1.25;;;;;;;;5060459;27;45438;-86
2021/08/10 13:28:16;;;;;;;;;0.50;0.50;;;;;;;;5056397;27;45517;-82
2021/08/10 13:30:41;;;;;;;;;0.00;0.00;;;;;;;;5049158;27;45737;-81
2021/08/10 13:33:07;;;;;;;;;1.00;1.00;;;;;;;;5039729;27;45702;-83
2021/08/10 13:35:32;;;;;;;;;1.00;1.00;;;;;;;;5021679;27;45460;-83
2021/08/10 13:37:58;;;;;;;;;0.50;0.50;;;;;;;;5019851;28;46002;-83
2021/08/10 13:40:23;;;;;;;;;1.00;1.00;;;;;;;;5042031;28;45498;-84
2021/08/10 13:42:48;;;;;;;;;0.00;0.00;;;;;;;;5022664;27;45422;-84
2021/08/10 13:45:13;;;;;;;;;1.00;1.00;;;;;;;;5023008;27;45350;-82
2021/08/10 13:47:39;;;;;;;;;1.00;1.00;;;;;;;;5054196;27;47688;-83
2021/08/10 13:50:04;;;;;;;;;0.25;0.25;;;;;;;;5027510;27;46335;-82
2021/08/10 13:52:30;;;;;;;;;1.00;1.00;;;;;;;;5030505;27;45526;-83
2021/08/10 13:54:55;;;;;;;;;2.00;1.00;;;;;;;;5018397;27;45344;-84
2021/08/10 13:57:23;;;;;;;;;1.00;1.00;;;;;;;;5022542;27;47132;-85
2021/08/10 13:59:48;;;;;;;;;1.00;0.00;;;;;;;;5033571;27;45449;-85
2021/08/10 14:02:13;;;;;;;;;4.00;1.33;;;;;;;;5019468;27;45511;-85
2021/08/10 14:04:39;;;;;;;;;1.00;0.33;;;;;;;;5022313;27;45680;-84
2021/08/10 14:07:04;;;;;;;;;1.00;1.00;;;;;;;;5016783;27;45350;-83
2021/08/10 14:09:29;;;;;;;;;1.25;1.25;;;;;;;;5024372;27;46207;-83
2021/08/10 14:11:55;;;;;;;;;1.00;1.00;;;;;;;;5019461;27;45464;-85
2021/08/10 14:14:20;;;;;;;;;1.00;1.00;;;;;;;;5019495;28;45297;-86
2021/08/10 14:16:45;;;;;;;;;1.00;1.00;;;;;;;;5064994;27;46275;-85
2021/08/10 14:19:10;;;;;;;;;2.00;1.00;;;;;;;;5076526;27;45282;-81
2021/08/10 14:21:35;;;;;;;;;1.00;1.00;;;;;;;;5018945;27;45377;-84
2021/08/10 14:24:01;;;;;;;;;1.00;1.00;;;;;;;;5073667;27;45679;-83
2021/08/10 14:26:26;;;;;;;;;1.00;1.00;;;;;;;;5026987;27;46400;-84
2021/08/10 14:28:51;;;;;;;;;3.00;1.00;;;;;;;;5020477;27;45400;-84
2021/08/10 14:31:16;;;;;;;;;1.00;1.00;;;;;;;;5019417;27;45390;-83
2021/08/10 14:33:42;;;;;;;;;0.75;0.75;;;;;;;;5022685;27;45644;-88
2021/08/10 14:36:07;;;;;;;;;2.25;1.00;;;;;;;;5027876;27;46805;-87
2021/08/10 14:38:33;;;;;;;;;2.50;1.00;;;;;;;;5024677;27;45965;-83
2021/08/10 14:40:59;;;;;;;;;1.25;1.25;;;;;;;;5033710;27;47383;-83
2021/08/10 14:43:24;;;;;;;;;0.50;0.50;;;;;;;;5024206;27;45611;-82